Time;durP1;ratioP1;P1;durP2;ratioP2;P2;SDS_P1;SDS_P2;PMS_P1;PMS_P2;Temp;Humidity;BMP_temperature;BMP_pressure;BME280_temperature;BME280_humidity;BME280_pressure;Samples;Min_cycle;Max_cycle;Signal;HPM_P1;HPM_P2
2022/03/22 00:00:55;;;;;;;14.40;12.90;;;7.70;68.00;;;;;;10388022;28;20254;-84
2022/03/22 00:05:58;;;;;;;17.40;14.13;;;7.60;67.70;;;;;;10378497;28;20218;-85
2022/03/22 00:11:01;;;;;;;14.80;13.20;;;7.50;68.50;;;;;;10388993;28;20264;-86
2022/03/22 00:16:03;;;;;;;14.73;13.20;;;7.40;69.60;;;;;;10415656;28;20218;-84
2022/03/22 00:21:07;;;;;;;15.37;13.77;;;7.30;69.80;;;;;;10379570;28;20222;-85
2022/03/22 00:26:09;;;;;;;14.03;12.50;;;7.20;70.90;;;;;;10379030;28;20225;-86
2022/03/22 00:31:12;;;;;;;16.80;13.53;;;7.20;69.90;;;;;;10393841;28;20301;-86
2022/03/22 00:36:16;;;;;;;13.73;12.33;;;7.20;71.20;;;;;;10373651;28;20221;-86
2022/03/22 00:41:18;;;;;;;15.47;13.70;;;7.20;71.70;;;;;;10395753;28;20256;-84
2022/03/22 00:46:20;;;;;;;16.03;14.33;;;7.20;69.80;;;;;;10369893;28;20227;-84
2022/03/22 00:51:24;;;;;;;14.83;13.33;;;7.20;68.50;;;;;;10379605;28;20705;-85
2022/03/22 00:56:26;;;;;;;14.90;13.40;;;7.20;69.40;;;;;;10407601;28;20645;-85
2022/03/22 01:01:28;;;;;;;16.73;13.60;;;7.00;69.60;;;;;;10405276;28;20606;-85
2022/03/22 01:06:32;;;;;;;16.23;12.90;;;7.00;72.30;;;;;;10410044;28;20891;-85
2022/03/22 01:11:35;;;;;;;14.20;12.70;;;6.90;73.40;;;;;;10391317;28;20230;-86
2022/03/22 01:16:39;;;;;;;14.63;12.87;;;7.00;72.50;;;;;;10385593;28;20620;-85
2022/03/22 01:21:42;;;;;;;14.73;13.07;;;7.00;74.50;;;;;;10388533;28;20605;-85
2022/03/22 01:26:45;;;;;;;14.20;12.80;;;7.00;73.30;;;;;;10407305;28;20191;-85
2022/03/22 01:31:49;;;;;;;13.87;12.37;;;7.00;74.60;;;;;;10400544;28;20242;-85
2022/03/22 01:36:52;;;;;;;15.47;13.77;;;7.10;73.00;;;;;;10393497;28;20211;-83
2022/03/22 01:41:55;;;;;;;14.90;13.37;;;7.10;74.50;;;;;;10392200;28;20214;-84
2022/03/22 01:47:00;;;;;;;14.53;13.00;;;7.10;74.50;;;;;;10366127;28;20198;-85
2022/03/22 01:52:05;;;;;;;16.40;13.40;;;7.10;74.90;;;;;;10383881;28;20225;-85
2022/03/22 01:57:10;;;;;;;15.83;13.07;;;7.10;75.20;;;;;;10390402;28;20221;-85
2022/03/22 02:07:35;;;;;;;14.73;13.17;;;7.00;75.40;;;;;;10366308;28;20552;-85
2022/03/22 02:12:37;;;;;;;20.77;13.67;;;7.00;75.20;;;;;;10389999;28;20233;-85
2022/03/22 02:17:39;;;;;;;14.50;13.00;;;6.90;75.30;;;;;;10425685;28;20300;-86
2022/03/22 02:22:51;;;;;;;14.30;12.90;;;6.90;75.00;;;;;;10381533;28;20233;-85
2022/03/22 02:27:55;;;;;;;17.03;13.37;;;6.90;73.30;;;;;;10381517;28;20316;-84
2022/03/22 02:32:59;;;;;;;16.00;14.37;;;6.80;75.20;;;;;;10364396;28;20284;-84
2022/03/22 02:38:01;;;;;;;15.13;13.63;;;6.70;75.20;;;;;;10378999;28;20218;-85
2022/03/22 02:43:05;;;;;;;15.00;13.50;;;6.70;75.10;;;;;;10388691;28;20226;-85
2022/03/22 02:48:07;;;;;;;16.50;13.60;;;6.60;74.50;;;;;;10413739;28;20202;-86
2022/03/22 02:53:09;;;;;;;15.70;14.10;;;6.60;75.00;;;;;;10417072;28;20221;-84
2022/03/22 02:58:13;;;;;;;14.23;12.83;;;6.50;73.50;;;;;;10393639;28;20305;-85
2022/03/22 03:03:19;;;;;;;15.40;13.80;;;6.40;74.20;;;;;;10407571;23;20821;-77
2022/03/22 03:08:26;;;;;;;13.83;12.43;;;6.40;73.50;;;;;;10371485;28;20728;-78
2022/03/22 03:14:38;;;;;;;14.90;13.40;;;6.20;75.30;;;;;;10363383;28;20705;-75
2022/03/22 03:18:52;;;;;;;16.03;14.00;;;6.20;74.80;;;;;;10366706;28;20711;-77
2022/03/22 03:23:54;;;;;;;16.40;13.37;;;6.20;74.00;;;;;;10367608;28;20228;-77
2022/03/22 03:28:57;;;;;;;16.07;14.30;;;6.10;74.10;;;;;;10371952;28;20199;-77
2022/03/22 03:33:59;;;;;;;17.80;14.47;;;6.10;74.50;;;;;;10369206;28;20672;-77
2022/03/22 03:39:03;;;;;;;15.57;13.90;;;6.10;74.00;;;;;;10372031;28;20221;-77
2022/03/22 03:49:23;;;;;;;16.43;14.10;;;6.10;76.30;;;;;;10367794;28;20233;-78
2022/03/22 03:54:25;;;;;;;16.30;14.70;;;6.10;77.00;;;;;;10373883;28;20229;-78
2022/03/22 03:59:28;;;;;;;16.90;15.10;;;6.10;76.20;;;;;;10376343;28;20215;-78
2022/03/22 04:04:30;;;;;;;18.30;14.93;;;6.10;75.40;;;;;;10371833;28;20229;-77
2022/03/22 04:09:34;;;;;;;16.27;14.60;;;6.10;75.90;;;;;;10374652;28;20237;-78
2022/03/22 04:14:37;;;;;;;19.50;15.60;;;6.10;76.10;;;;;;10351825;28;20349;-78
2022/03/22 04:19:39;;;;;;;16.60;14.90;;;6.10;76.60;;;;;;10367706;28;20226;-77
2022/03/22 04:24:42;;;;;;;16.10;14.40;;;6.00;76.80;;;;;;10369603;28;20229;-77
2022/03/22 04:35:06;;;;;;;19.03;15.70;;;5.90;77.00;;;;;;10372580;28;20206;-78
2022/03/22 04:40:10;;;;;;;16.90;15.10;;;5.90;76.50;;;;;;10365645;28;20218;-77
2022/03/22 04:45:14;;;;;;;18.37;15.10;;;5.80;76.90;;;;;;10356459;28;20579;-77
2022/03/22 04:50:18;;;;;;;16.97;14.77;;;5.80;76.30;;;;;;10367636;28;20206;-77
2022/03/22 05:00:41;;;;;;;17.77;15.83;;;5.70;77.30;;;;;;10356071;28;20229;-77
2022/03/22 05:11:03;;;;;;;16.60;14.70;;;5.70;77.60;;;;;;10374889;28;20563;-77
2022/03/22 05:16:06;;;;;;;17.73;15.83;;;5.60;77.70;;;;;;10371316;28;20301;-77
2022/03/22 05:21:08;;;;;;;18.00;16.10;;;5.60;78.40;;;;;;10373460;28;20588;-77
2022/03/22 05:26:11;;;;;;;22.03;17.77;;;5.60;78.10;;;;;;10377200;28;20529;-77
2022/03/22 05:31:15;;;;;;;19.33;16.43;;;5.60;78.50;;;;;;10371657;28;20223;-77
2022/03/22 05:36:17;;;;;;;16.87;14.80;;;5.60;77.30;;;;;;10362744;28;20219;-77
2022/03/22 05:41:20;;;;;;;17.90;15.90;;;5.60;79.30;;;;;;10372658;28;20230;-78
2022/03/22 05:46:24;;;;;;;19.20;17.23;;;5.60;78.20;;;;;;10375177;28;20278;-75
2022/03/22 05:51:26;;;;;;;18.47;16.60;;;5.60;79.60;;;;;;10376375;28;20298;-78
2022/03/22 05:56:28;;;;;;;20.43;16.00;;;5.60;78.50;;;;;;10369390;28;20256;-75
2022/03/22 06:01:32;;;;;;;20.43;16.87;;;5.70;79.80;;;;;;10374950;28;20233;-76
2022/03/22 06:06:35;;;;;;;19.97;17.00;;;5.70;78.80;;;;;;10356869;28;20234;-79
2022/03/22 06:11:37;;;;;;;18.63;16.63;;;5.70;81.00;;;;;;10330963;28;20249;-77
2022/03/22 06:16:41;;;;;;;20.57;18.37;;;5.80;78.80;;;;;;10340270;28;20215;-76
2022/03/22 06:21:43;;;;;;;22.70;19.27;;;5.80;78.00;;;;;;10341798;28;20357;-77
2022/03/22 06:26:45;;;;;;;19.63;17.53;;;5.80;78.00;;;;;;10340541;28;20209;-77
2022/03/22 06:31:49;;;;;;;22.17;19.07;;;5.80;77.50;;;;;;10342323;28;20218;-76
2022/03/22 06:36:51;;;;;;;19.63;17.53;;;5.80;78.60;;;;;;10339725;28;20585;-77
2022/03/22 06:41:53;;;;;;;19.50;17.50;;;5.90;79.70;;;;;;10340187;28;20219;-77
2022/03/22 06:46:57;;;;;;;19.63;17.33;;;5.90;79.30;;;;;;10347098;28;20210;-77
2022/03/22 06:51:59;;;;;;;18.43;16.50;;;6.00;78.70;;;;;;10342329;28;20246;-79
2022/03/22 06:57:01;;;;;;;21.67;17.00;;;6.10;79.00;;;;;;10337210;28;20217;-80
2022/03/22 07:02:06;;;;;;;22.20;17.63;;;6.20;79.20;;;;;;10340475;28;20641;-77
2022/03/22 07:07:08;;;;;;;19.33;17.13;;;6.30;79.60;;;;;;10332644;28;20203;-78
2022/03/22 07:12:10;;;;;;;19.63;17.27;;;6.50;79.40;;;;;;10344402;28;20285;-79
2022/03/22 07:17:14;;;;;;;25.30;18.50;;;6.60;78.10;;;;;;10321806;28;20214;-77
2022/03/22 07:22:16;;;;;;;22.23;17.93;;;6.80;78.50;;;;;;10350093;28;20664;-77
2022/03/22 07:27:18;;;;;;;22.53;19.50;;;6.90;78.90;;;;;;10356439;28;20203;-78
2022/03/22 07:32:24;;;;;;;21.13;19.03;;;7.10;79.90;;;;;;10377658;28;20210;-80
2022/03/22 07:37:26;;;;;;;21.63;19.10;;;7.20;78.50;;;;;;10359198;28;20223;-80
2022/03/22 07:42:29;;;;;;;24.57;19.60;;;7.30;78.50;;;;;;10351113;28;20748;-80
2022/03/22 07:47:33;;;;;;;23.50;18.63;;;7.40;78.60;;;;;;10332066;28;20223;-81
2022/03/22 07:57:57;;;;;;;23.00;19.63;;;7.70;78.60;;;;;;10335240;28;20301;-78
2022/03/22 08:03:03;;;;;;;23.07;19.50;;;7.90;79.70;;;;;;10349699;28;20556;-80
2022/03/22 08:08:06;;;;;;;37.00;21.23;;;8.10;80.10;;;;;;10344875;28;20205;-79
2022/03/22 08:13:08;;;;;;;29.57;19.00;;;8.30;79.60;;;;;;10360300;28;20235;-80
2022/03/22 08:18:12;;;;;;;23.60;19.37;;;8.50;77.50;;;;;;10357940;28;20713;-80
2022/03/22 08:23:14;;;;;;;19.37;17.37;;;8.70;78.10;;;;;;10344858;28;20219;-80
2022/03/22 08:28:16;;;;;;;19.87;17.80;;;8.90;76.50;;;;;;10358057;28;20196;-78
2022/03/22 08:33:20;;;;;;;19.17;17.27;;;9.10;75.40;;;;;;10365617;28;20229;-78
2022/03/22 08:38:24;;;;;;;17.57;15.80;;;9.30;75.50;;;;;;10348820;28;20253;-78
2022/03/22 08:43:26;;;;;;;19.60;17.37;;;9.50;75.10;;;;;;10369329;28;20257;-78
2022/03/22 08:48:30;;;;;;;21.87;17.80;;;9.60;76.20;;;;;;10372552;28;20202;-76
2022/03/22 08:53:32;;;;;;;17.83;16.03;;;9.80;75.40;;;;;;10356409;28;20219;-78
2022/03/22 08:58:34;;;;;;;19.83;17.77;;;10.00;73.30;;;;;;10366098;28;20760;-79
2022/03/22 09:03:38;;;;;;;20.33;17.97;;;10.20;75.60;;;;;;10463965;22;20228;-79
2022/03/22 09:08:42;;;;;;;17.70;15.80;;;10.30;73.50;;;;;;10489160;28;20208;-78
2022/03/22 09:13:44;;;;;;;20.33;16.00;;;10.50;74.90;;;;;;10470636;28;20603;-79
2022/03/22 09:18:48;;;;;;;19.83;17.40;;;10.70;74.30;;;;;;10490888;28;20248;-79
2022/03/22 09:23:50;;;;;;;19.27;16.80;;;10.90;72.60;;;;;;10494593;28;20284;-80
2022/03/22 09:28:53;;;;;;;19.37;17.27;;;11.10;73.40;;;;;;10493590;28;20629;-79
2022/03/22 09:33:57;;;;;;;24.57;18.00;;;11.40;71.90;;;;;;10498064;28;20308;-79
2022/03/22 09:39:01;;;;;;;20.60;16.43;;;11.60;69.90;;;;;;10468873;28;20351;-79
2022/03/22 09:44:04;;;;;;;21.20;15.67;;;11.80;70.10;;;;;;10487317;28;20224;-80
2022/03/22 09:49:09;;;;;;;20.67;16.57;;;12.10;69.70;;;;;;10476732;28;20197;-77
2022/03/22 09:54:12;;;;;;;18.70;16.60;;;12.40;68.90;;;;;;10490783;28;20331;-80
2022/03/22 09:59:17;;;;;;;19.93;17.80;;;12.70;69.00;;;;;;10509120;28;20342;-77
2022/03/22 10:04:21;;;;;;;20.27;18.17;;;13.00;66.10;;;;;;10484085;28;20838;-77
2022/03/22 10:09:30;;;;;;;22.37;16.77;;;13.40;68.00;;;;;;10500745;28;20209;-79
2022/03/22 10:14:34;;;;;;;21.17;17.73;;;13.60;64.10;;;;;;10491043;28;20696;-79
2022/03/22 10:19:44;;;;;;;22.40;18.33;;;13.70;64.90;;;;;;10471303;28;20320;-78
2022/03/22 10:24:47;;;;;;;18.43;16.27;;;13.60;64.00;;;;;;10481354;28;20224;-78
2022/03/22 10:29:49;;;;;;;20.43;18.17;;;13.40;66.50;;;;;;10490579;28;20238;-78
2022/03/22 10:34:53;;;;;;;20.30;17.53;;;13.20;63.20;;;;;;10497898;28;20226;-78
2022/03/22 10:39:55;;;;;;;19.07;17.07;;;13.10;64.90;;;;;;10487148;28;20220;-79
2022/03/22 10:44:59;;;;;;;27.30;17.57;;;13.00;67.20;;;;;;10487567;28;20332;-79
2022/03/22 10:50:05;;;;;;;18.90;17.00;;;12.90;67.70;;;;;;10502812;28;20192;-78
2022/03/22 10:55:08;;;;;;;16.93;15.23;;;12.80;66.80;;;;;;10491885;28;20220;-79
2022/03/22 11:00:11;;;;;;;19.73;16.33;;;12.70;67.40;;;;;;10499070;28;20259;-79
2022/03/22 11:05:19;;;;;;;19.83;17.30;;;12.70;70.30;;;;;;10477279;28;20236;-77
2022/03/22 11:10:25;;;;;;;25.20;18.00;;;12.70;64.20;;;;;;10494087;28;20196;-80
2022/03/22 11:15:29;;;;;;;24.10;17.67;;;12.70;62.30;;;;;;10495048;28;20254;-80
2022/03/22 11:20:32;;;;;;;20.30;16.83;;;12.80;63.50;;;;;;10489827;28;20224;-81
2022/03/22 11:25:36;;;;;;;21.70;19.30;;;12.80;60.90;;;;;;10496730;28;20660;-79
2022/03/22 11:30:40;;;;;;;21.40;16.87;;;12.90;59.20;;;;;;10488899;28;20216;-79
2022/03/22 11:35:51;;;;;;;18.17;16.30;;;12.90;61.10;;;;;;10491379;28;20545;-79
2022/03/22 11:46:13;;;;;;;18.00;15.77;;;13.00;58.90;;;;;;10487277;28;20203;-80
2022/03/22 11:51:23;;;;;;;19.87;17.30;;;13.00;62.80;;;;;;10480094;28;20598;-78
2022/03/22 11:56:29;;;;;;;16.63;14.83;;;13.00;62.40;;;;;;10488816;28;20203;-79
2022/03/22 12:01:36;;;;;;;16.73;15.03;;;13.00;60.20;;;;;;10461306;28;20707;-81
2022/03/22 12:06:40;;;;;;;18.53;15.97;;;13.00;61.80;;;;;;10495502;28;20201;-81
2022/03/22 12:11:49;;;;;;;16.70;15.00;;;12.90;65.60;;;;;;10471166;28;20664;-80
2022/03/22 12:16:52;;;;;;;17.23;15.53;;;12.90;65.10;;;;;;10492969;28;20245;-79
2022/03/22 12:21:56;;;;;;;16.80;15.10;;;12.90;64.00;;;;;;10490933;28;20233;-81
2022/03/22 12:26:58;;;;;;;21.07;17.23;;;12.90;65.40;;;;;;10484299;28;20233;-81
2022/03/22 12:32:06;;;;;;;19.40;17.40;;;13.00;59.40;;;;;;10493591;28;20239;-80
2022/03/22 12:37:11;;;;;;;17.47;15.60;;;13.10;59.30;;;;;;10482756;28;20211;-81
2022/03/22 12:42:15;;;;;;;19.53;17.20;;;13.10;66.10;;;;;;10493605;28;20229;-82
2022/03/22 12:47:19;;;;;;;18.43;16.47;;;13.10;65.90;;;;;;10447363;28;20559;-81
2022/03/22 12:52:23;;;;;;;19.67;17.43;;;13.20;67.30;;;;;;10489591;28;20259;-78
2022/03/22 12:57:25;;;;;;;14.70;13.27;;;13.20;62.90;;;;;;10483106;28;20192;-80
2022/03/22 13:02:27;;;;;;;19.07;17.00;;;13.30;62.00;;;;;;10452212;28;20308;-78
2022/03/22 13:07:31;;;;;;;17.60;15.77;;;13.30;62.00;;;;;;10474898;28;20209;-79
2022/03/22 13:12:34;;;;;;;18.03;16.03;;;13.40;63.80;;;;;;10461495;28;20231;-78
2022/03/22 13:17:42;;;;;;;17.53;15.73;;;13.50;59.90;;;;;;10452048;28;20223;-79
2022/03/22 13:22:56;;;;;;;17.90;16.10;;;13.60;59.30;;;;;;10465313;28;20255;-78
2022/03/22 13:28:00;;;;;;;17.73;15.97;;;13.60;59.40;;;;;;10459612;28;20645;-77
2022/03/22 13:33:10;;;;;;;17.00;14.90;;;13.60;62.40;;;;;;10465754;28;20304;-80
2022/03/22 13:38:17;;;;;;;21.17;17.10;;;13.70;57.90;;;;;;10457735;28;20300;-79
2022/03/22 13:43:19;;;;;;;18.20;16.30;;;13.80;60.60;;;;;;10463272;28;20221;-80
2022/03/22 13:48:22;;;;;;;19.10;15.77;;;13.80;59.70;;;;;;10461927;28;20212;-80
2022/03/22 13:53:27;;;;;;;18.77;16.90;;;13.80;59.30;;;;;;10478116;28;20244;-79
2022/03/22 13:58:37;;;;;;;18.03;14.03;;;13.90;57.40;;;;;;10433082;28;20287;-79
2022/03/22 14:03:40;;;;;;;18.17;14.50;;;14.00;60.70;;;;;;10483577;28;20232;-78
2022/03/22 14:08:44;;;;;;;17.53;15.40;;;13.90;62.90;;;;;;10476525;28;20660;-79
2022/03/22 14:13:46;;;;;;;16.33;14.63;;;14.00;57.10;;;;;;10467348;28;20248;-79
2022/03/22 14:18:48;;;;;;;16.13;14.47;;;14.10;59.80;;;;;;10464321;28;20206;-79
2022/03/22 14:23:52;;;;;;;19.03;16.63;;;14.10;58.50;;;;;;10461724;28;20681;-79
2022/03/22 14:28:56;;;;;;;17.23;15.50;;;14.10;57.80;;;;;;10465452;28;20471;-77
2022/03/22 14:33:58;;;;;;;17.00;14.77;;;14.20;59.30;;;;;;10462076;28;20218;-78
2022/03/22 14:39:02;;;;;;;18.83;16.93;;;14.10;59.40;;;;;;10466166;28;20216;-78
2022/03/22 14:44:04;;;;;;;16.57;14.87;;;14.10;59.20;;;;;;10476584;28;20221;-78
2022/03/22 14:49:06;;;;;;;16.93;15.17;;;14.10;60.70;;;;;;10496253;28;20199;-78
2022/03/22 14:54:13;;;;;;;17.53;15.73;;;14.10;62.10;;;;;;10497075;28;20212;-79
2022/03/22 14:59:16;;;;;;;17.37;15.23;;;14.10;64.60;;;;;;10470766;28;20228;-79
2022/03/22 15:04:22;;;;;;;17.67;15.77;;;14.10;59.60;;;;;;10489049;22;20232;-80
2022/03/22 15:09:26;;;;;;;16.87;15.10;;;14.20;62.70;;;;;;10458356;28;20200;-79
2022/03/22 15:14:28;;;;;;;16.80;13.70;;;14.20;60.50;;;;;;10436030;28;20661;-79
2022/03/22 15:19:30;;;;;;;19.20;13.67;;;14.30;63.60;;;;;;10430672;28;20244;-79
2022/03/22 15:24:34;;;;;;;17.93;16.03;;;14.40;60.10;;;;;;10458822;28;20278;-78
2022/03/22 15:29:36;;;;;;;16.47;14.83;;;14.50;58.60;;;;;;10457528;28;20232;-78
2022/03/22 15:34:38;;;;;;;18.27;16.27;;;14.60;58.40;;;;;;10455472;28;20693;-79
2022/03/22 15:39:42;;;;;;;30.17;15.37;;;14.60;60.80;;;;;;10452851;28;20236;-77
2022/03/22 15:44:44;;;;;;;20.13;15.90;;;14.60;61.00;;;;;;10440733;28;20225;-77
2022/03/22 15:49:46;;;;;;;15.57;13.93;;;14.60;59.70;;;;;;10445015;28;20243;-79
2022/03/22 15:54:50;;;;;;;16.03;14.33;;;14.60;62.80;;;;;;10452645;28;20248;-77
2022/03/22 15:59:52;;;;;;;17.33;15.50;;;14.50;59.70;;;;;;10421936;28;20221;-77
2022/03/22 16:04:55;;;;;;;15.57;13.97;;;14.50;63.60;;;;;;10453191;28;20233;-77
2022/03/22 16:09:59;;;;;;;15.63;13.93;;;14.50;62.90;;;;;;10439578;28;20197;-76
2022/03/22 16:15:01;;;;;;;17.37;14.73;;;14.40;64.90;;;;;;10446748;28;20588;-78
2022/03/22 16:20:04;;;;;;;16.90;15.20;;;14.40;65.50;;;;;;10452459;28;20248;-76
2022/03/22 16:25:12;;;;;;;18.17;16.37;;;14.30;67.20;;;;;;10425059;28;20264;-78
2022/03/22 16:30:16;;;;;;;20.73;17.23;;;14.30;63.80;;;;;;10442697;28;20201;-78
2022/03/22 16:40:42;;;;;;;18.17;16.33;;;14.40;62.90;;;;;;10414917;28;20276;-78
2022/03/22 16:45:45;;;;;;;19.23;17.13;;;14.30;67.00;;;;;;10417065;28;20648;-79
2022/03/22 16:50:50;;;;;;;17.97;16.07;;;14.20;70.10;;;;;;10429988;28;20271;-79
2022/03/22 16:55:57;;;;;;;18.53;16.63;;;14.10;70.90;;;;;;10456788;28;20205;-79
2022/03/22 17:00:59;;;;;;;18.77;16.77;;;14.10;66.10;;;;;;10438710;28;20228;-79
2022/03/22 17:06:01;;;;;;;17.43;15.63;;;14.10;69.10;;;;;;10444323;28;20212;-79
2022/03/22 17:11:07;;;;;;;18.10;15.93;;;14.00;70.30;;;;;;10423804;28;20593;-79
2022/03/22 17:16:09;;;;;;;17.80;15.90;;;13.90;72.90;;;;;;10411761;28;20286;-79
2022/03/22 17:21:11;;;;;;;20.10;16.73;;;13.80;73.40;;;;;;10423814;28;20631;-79
2022/03/22 17:26:21;;;;;;;19.80;16.57;;;13.70;75.40;;;;;;10420092;28;20251;-79
2022/03/22 17:31:24;;;;;;;17.97;16.23;;;13.50;75.80;;;;;;10456139;28;20217;-80
2022/03/22 17:36:27;;;;;;;18.10;16.30;;;13.40;67.40;;;;;;10457299;28;20215;-79
2022/03/22 17:41:33;;;;;;;22.43;17.00;;;13.50;67.20;;;;;;10433565;28;20712;-79
2022/03/22 17:46:35;;;;;;;24.23;17.97;;;13.50;66.50;;;;;;10445569;28;20608;-79
2022/03/22 17:51:38;;;;;;;41.30;26.93;;;13.50;66.40;;;;;;10435185;28;20225;-79
2022/03/22 17:56:41;;;;;;;23.83;19.03;;;13.40;66.60;;;;;;10418634;28;20661;-79
2022/03/22 18:01:45;;;;;;;22.13;19.70;;;13.30;66.30;;;;;;10433126;28;20653;-79
2022/03/22 18:06:47;;;;;;;19.20;16.80;;;13.20;66.40;;;;;;10428550;28;20205;-79
2022/03/22 18:11:52;;;;;;;22.70;19.40;;;13.10;66.60;;;;;;10453350;28;20229;-79
2022/03/22 18:16:54;;;;;;;20.87;18.73;;;12.90;67.20;;;;;;10453611;28;20768;-79
2022/03/22 18:21:56;;;;;;;25.20;22.47;;;12.80;68.00;;;;;;10436669;28;20231;-79
2022/03/22 18:27:00;;;;;;;27.10;18.60;;;12.70;67.20;;;;;;10446832;28;20206;-79
2022/03/22 18:32:02;;;;;;;21.13;18.93;;;12.60;67.60;;;;;;10427291;28;20218;-79
2022/03/22 18:37:04;;;;;;;20.30;18.20;;;12.50;67.50;;;;;;10440876;28;20226;-79
2022/03/22 18:42:08;;;;;;;23.50;18.27;;;12.40;68.00;;;;;;10422831;28;20737;-78
2022/03/22 18:47:11;;;;;;;19.60;17.40;;;12.30;68.70;;;;;;10436374;28;20205;-78
2022/03/22 18:52:14;;;;;;;24.77;22.20;;;12.20;68.20;;;;;;10419275;28;20217;-78
2022/03/22 18:57:18;;;;;;;26.80;23.67;;;12.20;68.20;;;;;;10451251;28;20208;-78
2022/03/22 19:02:20;;;;;;;29.83;23.10;;;12.00;68.10;;;;;;10450226;28;20221;-78
2022/03/22 19:07:22;;;;;;;24.80;22.27;;;11.90;68.20;;;;;;10437278;28;20201;-78
2022/03/22 19:12:25;;;;;;;27.30;23.10;;;11.80;68.30;;;;;;10449757;28;20221;-79
2022/03/22 19:22:54;;;;;;;20.53;18.43;;;11.60;68.90;;;;;;10401945;28;20226;-78
2022/03/22 19:27:57;;;;;;;25.10;19.30;;;11.60;69.20;;;;;;10415079;28;20280;-78
2022/03/22 19:33:06;;;;;;;25.60;19.07;;;11.50;69.50;;;;;;10415450;28;20245;-79
2022/03/22 19:38:12;;;;;;;22.40;20.00;;;11.40;69.50;;;;;;10428353;28;20303;-79
2022/03/22 19:43:16;;;;;;;23.93;19.83;;;11.30;70.10;;;;;;10416903;28;20217;-79
2022/03/22 19:48:24;;;;;;;23.67;19.43;;;11.20;71.40;;;;;;10419065;28;20291;-79
2022/03/22 19:53:26;;;;;;;22.60;18.13;;;11.20;70.90;;;;;;10418701;28;20217;-78
2022/03/22 19:58:30;;;;;;;23.13;19.43;;;11.20;71.60;;;;;;10415814;28;20598;-78
2022/03/22 20:03:32;;;;;;;19.07;17.10;;;11.20;71.40;;;;;;10431014;28;20603;-77
2022/03/22 20:08:34;;;;;;;19.37;17.47;;;11.10;71.40;;;;;;10415910;28;20229;-77
2022/03/22 20:13:38;;;;;;;23.20;20.10;;;11.10;69.40;;;;;;10412274;28;20259;-79
2022/03/22 20:18:40;;;;;;;21.93;18.03;;;10.90;70.20;;;;;;10406131;28;20234;-79
2022/03/22 20:23:42;;;;;;;18.60;16.27;;;10.90;69.30;;;;;;10406380;28;20230;-79
2022/03/22 20:28:45;;;;;;;22.53;16.10;;;10.80;70.10;;;;;;10409285;28;20206;-79
2022/03/22 20:33:48;;;;;;;21.30;17.13;;;10.70;70.20;;;;;;10419560;28;20221;-79
2022/03/22 20:38:50;;;;;;;20.77;18.53;;;10.60;70.80;;;;;;10425624;28;20201;-79
2022/03/22 20:43:54;;;;;;;23.73;18.63;;;10.60;73.20;;;;;;10399639;28;20875;-79
2022/03/22 20:48:56;;;;;;;29.40;24.70;;;10.60;72.50;;;;;;10427324;28;20210;-79
2022/03/22 20:53:59;;;;;;;24.47;20.50;;;10.70;70.20;;;;;;10414617;28;20247;-79
2022/03/22 20:59:06;;;;;;;24.00;17.30;;;10.50;70.00;;;;;;10435025;28;20292;-79
2022/03/22 21:04:09;;;;;;;20.00;18.00;;;10.40;72.00;;;;;;10399050;28;20229;-79
2022/03/22 21:09:11;;;;;;;19.70;16.23;;;10.40;71.90;;;;;;10404975;28;20221;-79
2022/03/22 21:14:15;;;;;;;17.00;15.27;;;10.40;71.50;;;;;;10418675;28;20247;-80
2022/03/22 21:19:17;;;;;;;15.37;13.77;;;10.30;69.00;;;;;;10442893;28;20206;-79
2022/03/22 21:24:19;;;;;;;14.27;12.50;;;10.30;69.00;;;;;;10440651;28;20220;-78
2022/03/22 21:29:24;;;;;;;27.60;23.00;;;10.20;69.70;;;;;;10429875;28;20285;-79
2022/03/22 21:34:26;;;;;;;12.80;11.50;;;10.10;67.50;;;;;;10434459;28;20221;-79
2022/03/22 21:39:28;;;;;;;12.10;10.90;;;10.00;66.90;;;;;;10439370;28;20708;-80
2022/03/22 21:44:32;;;;;;;12.80;11.50;;;9.90;67.50;;;;;;10438131;28;20221;-80
2022/03/22 21:49:34;;;;;;;12.70;11.13;;;9.90;66.70;;;;;;10442420;28;20201;-79
2022/03/22 21:54:37;;;;;;;11.27;10.10;;;9.80;67.40;;;;;;10431203;28;20248;-79
2022/03/22 21:59:40;;;;;;;10.23;9.23;;;9.70;66.00;;;;;;10424485;28;20242;-79
2022/03/22 22:04:42;;;;;;;11.20;9.60;;;9.60;64.40;;;;;;10425146;28;20320;-79
2022/03/22 22:09:44;;;;;;;12.10;9.57;;;9.40;66.30;;;;;;10422701;28;20197;-79
2022/03/22 22:14:50;;;;;;;9.53;8.40;;;9.40;64.60;;;;;;10430163;28;20585;-79
2022/03/22 22:19:52;;;;;;;11.50;9.83;;;9.40;64.90;;;;;;10406060;28;20218;-79
2022/03/22 22:24:54;;;;;;;12.87;10.10;;;9.30;66.40;;;;;;10448337;28;20305;-80
2022/03/22 22:29:58;;;;;;;10.80;9.70;;;9.30;65.30;;;;;;10438813;28;20217;-79
2022/03/22 22:35:00;;;;;;;10.73;9.67;;;9.20;63.90;;;;;;10456956;28;20688;-80
2022/03/22 22:40:02;;;;;;;11.30;10.17;;;9.10;65.30;;;;;;10461705;28;20586;-79
2022/03/22 22:45:09;;;;;;;11.70;10.50;;;9.10;65.30;;;;;;10448861;28;20754;-80
2022/03/22 22:50:11;;;;;;;10.23;9.13;;;9.10;63.00;;;;;;10434445;28;20198;-80
2022/03/22 22:55:17;;;;;;;10.30;9.30;;;9.00;63.10;;;;;;10446705;28;20214;-79
2022/03/22 23:00:51;;;;;;;10.73;9.60;;;8.90;63.80;;;;;;10460496;28;20221;-80
2022/03/22 23:05:54;;;;;;;10.27;8.90;;;8.90;64.20;;;;;;10427452;28;20590;-79
2022/03/22 23:10:56;;;;;;;10.67;9.67;;;8.90;66.30;;;;;;10454319;28;20288;-79
2022/03/22 23:16:00;;;;;;;9.53;8.63;;;9.00;66.70;;;;;;10452115;28;20205;-79
2022/03/22 23:21:03;;;;;;;8.80;7.70;;;9.00;65.10;;;;;;10460581;28;20218;-79
2022/03/22 23:26:05;;;;;;;8.17;7.43;;;8.90;65.10;;;;;;10444674;28;20597;-79
2022/03/22 23:31:09;;;;;;;9.33;8.50;;;8.90;64.10;;;;;;10462853;28;20210;-79
2022/03/22 23:36:11;;;;;;;13.10;8.47;;;8.90;63.30;;;;;;10463314;28;20202;-79
2022/03/22 23:41:13;;;;;;;9.33;8.43;;;8.70;64.00;;;;;;10471543;28;20263;-80
2022/03/22 23:46:16;;;;;;;9.93;8.70;;;8.70;64.70;;;;;;10453805;28;20647;-79
2022/03/22 23:51:19;;;;;;;9.83;8.83;;;8.70;61.50;;;;;;10443037;28;20225;-79
2022/03/22 23:56:21;;;;;;;11.03;9.10;;;8.60;60.40;;;;;;10441004;28;20202;-79
